Startpagina
METAR-TAF:

METAR-TAF

Vliegvelden :

Tarawa, Kiribati

Bonriki International Airport

breedte: 01-21N, lengte: 172-55E, hoogte: 2 m

Actueel weer

Dit bericht is 5 uur en het 2 minuten geleden gemaakt, om 06:00 UTC
Wind 11 kt uit het oosten
Temperatuur 28°C
Vochtigheid 84%
Druk 1009 hPa
Zicht 10 km of meer
Weinig wolken op 2000 ft
Verspreide wolken op 30000 ft

METAR: NGTA 260600Z 09011KT 9999 FEW020 SCT300 28/25 Q1009

Tijdstip: 01:02 (11:02 UTC)

Verwachting

Dit bericht is 5 uur en het 34 minuten geleden gemaakt, om 05:28 UTC
Verwachting geldig van 26 om 06 UTC tot 27 om 06 UTC
Wind 10 kt uit het oosten
Zicht 10 km of meer
Verspreide wolken op 1800 ft
Verspreide wolken op 4000 ft
Kans 30% :
Tijdelijke
van 26 om 06 UTC tot 26 om 12 UTC
Zicht: 3000 m
Gebroken wolken op 1500 ft
Weinig wolken op 1700 ft, Cumulonimbus.
onweer, regen

TAF: NGTA 260528Z 2606/2706 09010KT 9999 SCT018 SCT040 PROB30 TEMPO 2606/2612 3000 TSRA BKN015 FEW017CB

Waarnemingen en weersverwachtingen van meer dan 4000 vliegvelden (METAR en TAF).

De beschikbare stations zijn de gele en rode punten op de kaart.

Ga met uw muis naar het station om de naam te zien.

Klik dan om waarnemingen en weersverwachtingen te zien.

kaart wijzigen: klik op de groene knoppen met een zwart kruis om in te zoomen, op de groene knop met een streepje om uit te zoomen of op de groene pijlen voor aangrenzende kaarten.


METAR-TAF: